createdAt,value
2023-03-26T00:02:12.283Z,4.93
2023-03-26T00:04:58.961Z,4.92
2023-03-26T00:07:45.620Z,4.92
2023-03-26T00:10:32.567Z,4.92
2023-03-26T00:13:19.199Z,4.92
2023-03-26T00:16:05.959Z,4.92
2023-03-26T00:18:53.561Z,4.94
2023-03-26T00:21:43.289Z,4.95
2023-03-26T00:24:38.942Z,4.95
2023-03-26T00:27:27.376Z,4.94
2023-03-26T00:30:14.882Z,4.90
2023-03-26T00:33:02.911Z,4.94
2023-03-26T00:35:56.168Z,4.97
2023-03-26T00:38:46.276Z,5.02
2023-03-26T00:41:36.284Z,5.06
2023-03-26T00:44:23.092Z,5.07
2023-03-26T00:47:10.412Z,5.09
2023-03-26T00:49:57.023Z,5.12
2023-03-26T00:52:45.645Z,5.16
2023-03-26T00:55:35.349Z,5.19
2023-03-26T00:58:22.050Z,5.23
2023-03-26T01:01:16.217Z,5.27
2023-03-26T01:04:34.069Z,5.32
2023-03-26T01:07:28.278Z,5.35
2023-03-26T01:10:14.545Z,5.38
2023-03-26T01:13:01.345Z,5.41
2023-03-26T01:15:50.461Z,5.43
2023-03-26T01:18:40.450Z,5.45
2023-03-26T01:21:29.740Z,5.45
2023-03-26T01:24:16.403Z,5.45
2023-03-26T01:27:33.000Z,5.44
2023-03-26T01:30:34.754Z,5.44
2023-03-26T01:33:54.255Z,5.45
2023-03-26T01:37:05.523Z,5.44
2023-03-26T01:40:17.598Z,5.41
2023-03-26T01:43:36.303Z,5.40
2023-03-26T01:46:24.994Z,5.40
2023-03-26T01:49:12.637Z,5.40
2023-03-26T01:51:59.366Z,5.40
2023-03-26T01:54:46.155Z,5.40
2023-03-26T01:58:31.038Z,5.42
2023-03-26T02:01:59.346Z,5.42
2023-03-26T02:05:13.485Z,5.43
2023-03-26T02:08:22.057Z,5.39
2023-03-26T02:11:14.311Z,5.43
2023-03-26T02:14:06.528Z,5.45
2023-03-26T02:16:53.304Z,5.48
2023-03-26T02:19:43.064Z,5.48
2023-03-26T02:22:30.020Z,5.51
2023-03-26T02:25:20.568Z,5.53
2023-03-26T02:28:08.010Z,5.53
2023-03-26T02:30:57.140Z,5.55
2023-03-26T02:33:46.871Z,5.51
2023-03-26T02:36:35.236Z,5.54
2023-03-26T02:39:24.750Z,5.56
2023-03-26T02:42:15.678Z,5.59
2023-03-26T02:45:07.003Z,5.63
2023-03-26T02:48:14.533Z,5.66
2023-03-26T02:51:20.609Z,5.66
2023-03-26T02:54:18.311Z,5.67
2023-03-26T02:57:23.595Z,5.64
2023-03-26T03:00:28.447Z,5.61
2023-03-26T03:03:38.403Z,5.59
2023-03-26T03:06:39.873Z,5.58
2023-03-26T03:09:26.306Z,5.60
2023-03-26T03:12:42.504Z,5.62
2023-03-26T03:15:30.559Z,5.65
2023-03-26T03:18:17.327Z,5.65
2023-03-26T03:21:05.490Z,5.65
2023-03-26T03:23:56.329Z,5.68
2023-03-26T03:26:49.638Z,5.68
2023-03-26T03:29:44.360Z,5.68
2023-03-26T03:32:49.851Z,5.67
2023-03-26T03:35:39.518Z,5.64
2023-03-26T03:38:26.403Z,5.60
2023-03-26T03:41:13.599Z,5.58
2023-03-26T03:44:02.159Z,5.56
2023-03-26T03:46:53.473Z,5.55
2023-03-26T03:49:40.707Z,5.56
2023-03-26T03:52:27.572Z,5.58
2023-03-26T03:55:14.688Z,5.59
2023-03-26T03:58:09.388Z,5.60
2023-03-26T04:01:00.218Z,5.63
2023-03-26T04:04:00.897Z,5.64
2023-03-26T04:06:59.358Z,5.66
2023-03-26T04:09:50.161Z,5.65
2023-03-26T04:12:37.169Z,5.64
2023-03-26T04:15:24.824Z,5.65
2023-03-26T04:18:11.654Z,5.62
2023-03-26T04:21:02.486Z,5.62
2023-03-26T04:23:49.812Z,5.60
2023-03-26T04:27:00.629Z,5.61
2023-03-26T04:29:53.807Z,5.63
2023-03-26T04:32:44.008Z,5.66
2023-03-26T04:35:36.161Z,5.67
2023-03-26T04:38:23.697Z,5.69
2023-03-26T04:41:15.002Z,5.71
2023-03-26T04:44:21.676Z,5.73
2023-03-26T04:47:15.424Z,5.74
2023-03-26T04:50:08.846Z,5.70
2023-03-26T04:52:57.664Z,5.76
2023-03-26T04:56:27.390Z,5.78
2023-03-26T04:59:37.090Z,5.81
2023-03-26T05:02:26.089Z,5.84
2023-03-26T05:05:13.877Z,5.86
2023-03-26T05:08:00.426Z,5.88
2023-03-26T05:10:46.848Z,5.92
2023-03-26T05:13:42.204Z,5.98
2023-03-26T05:16:31.171Z,6.07
2023-03-26T05:19:24.710Z,6.14
2023-03-26T05:22:12.678Z,6.21
2023-03-26T05:25:06.795Z,6.24
2023-03-26T05:27:53.384Z,6.26
2023-03-26T05:30:42.801Z,6.28
2023-03-26T05:33:29.796Z,6.28
2023-03-26T05:36:23.807Z,6.25
2023-03-26T05:39:25.077Z,6.20
2023-03-26T05:42:21.266Z,6.15
2023-03-26T05:45:21.760Z,6.11
2023-03-26T05:48:08.672Z,6.07
2023-03-26T05:50:57.868Z,6.05
2023-03-26T05:53:46.103Z,6.02
2023-03-26T05:56:52.134Z,6.01
2023-03-26T05:59:57.253Z,5.99
2023-03-26T06:03:02.703Z,5.97
2023-03-26T06:06:19.883Z,6.01
2023-03-26T06:09:14.093Z,6.00
2023-03-26T06:12:01.422Z,6.02
2023-03-26T06:14:49.745Z,6.07
2023-03-26T06:17:39.412Z,6.15
2023-03-26T06:20:46.620Z,6.22
2023-03-26T06:23:48.395Z,6.28
2023-03-26T06:26:52.035Z,6.36
2023-03-26T06:29:38.532Z,6.43
2023-03-26T06:32:45.143Z,6.52
2023-03-26T06:35:37.351Z,6.56
2023-03-26T06:38:24.813Z,6.59
2023-03-26T06:41:11.449Z,6.60
2023-03-26T06:44:21.577Z,6.65
2023-03-26T06:47:27.895Z,6.70
2023-03-26T06:50:33.062Z,6.85
2023-03-26T06:53:32.685Z,6.95
2023-03-26T06:56:36.323Z,7.06
2023-03-26T06:59:39.422Z,7.21
2023-03-26T07:02:44.981Z,7.31
2023-03-26T11:45:21.948Z,9.41
2023-03-26T11:48:30.133Z,9.39
2023-03-26T11:51:39.658Z,9.70
2023-03-26T11:54:27.596Z,9.70
2023-03-26T11:57:27.905Z,9.57
2023-03-26T12:00:20.408Z,9.41
2023-03-26T12:03:15.370Z,9.25
2023-03-26T12:06:02.211Z,9.40
2023-03-26T12:08:50.528Z,9.37
2023-03-26T12:11:38.994Z,9.13
2023-03-26T12:14:29.630Z,8.96
2023-03-26T12:17:32.064Z,8.82
2023-03-26T12:20:34.221Z,8.65
2023-03-26T12:23:55.568Z,8.49
2023-03-26T12:26:45.825Z,8.29
2023-03-26T12:29:33.908Z,8.29
2023-03-26T12:32:22.465Z,8.39
2023-03-26T12:35:35.502Z,8.34
2023-03-26T12:38:35.059Z,8.22
2023-03-26T12:44:43.867Z,8.16
2023-03-26T12:44:59.389Z,8.12
2023-03-26T12:47:56.987Z,8.32
2023-03-26T12:51:32.617Z,8.45
2023-03-26T12:54:55.312Z,8.51
2023-03-26T12:58:14.072Z,8.51
2023-03-26T13:01:41.435Z,8.32
2023-03-26T13:05:22.672Z,8.33
2023-03-26T13:08:37.623Z,8.45
2023-03-26T13:11:50.713Z,8.39
2023-03-26T13:15:07.372Z,8.30
2023-03-26T13:18:19.112Z,8.20
2023-03-26T13:21:30.441Z,8.23
2023-03-26T13:24:56.937Z,8.13
2023-03-26T13:27:45.788Z,8.12
2023-03-26T13:30:56.188Z,7.99
2023-03-26T13:34:27.852Z,7.83
2023-03-26T13:37:36.616Z,7.67
2023-03-26T13:41:11.757Z,7.60
2023-03-26T13:44:01.601Z,7.63
2023-03-26T13:47:16.228Z,7.66
2023-03-26T13:50:18.008Z,7.63
2023-03-26T13:53:28.329Z,7.63
2023-03-26T13:56:20.013Z,7.70
2023-03-26T13:59:31.298Z,7.97
2023-03-26T14:02:32.793Z,8.26
2023-03-26T14:05:44.945Z,8.44
2023-03-26T14:08:47.189Z,8.60
2023-03-26T14:11:57.427Z,8.76
2023-03-26T14:15:05.679Z,8.83
2023-03-26T14:18:01.318Z,8.95
2023-03-26T14:21:06.813Z,9.03
2023-03-26T14:24:08.029Z,9.18
2023-03-26T14:27:12.568Z,9.27
2023-03-26T14:30:36.591Z,9.17
2023-03-26T14:33:44.270Z,9.03
2023-03-26T14:36:58.548Z,9.08
2023-03-26T14:40:14.437Z,9.22
2023-03-26T14:43:03.782Z,9.21
2023-03-26T14:46:31.161Z,9.07
2023-03-26T14:49:40.291Z,8.93
2023-03-26T14:52:52.782Z,8.88
2023-03-26T14:56:06.525Z,8.75
2023-03-26T14:59:43.587Z,8.56
2023-03-26T15:03:02.410Z,8.30
2023-03-26T15:06:35.342Z,8.22
2023-03-26T15:10:01.119Z,8.23
2023-03-26T15:13:42.706Z,8.15
2023-03-26T15:17:08.839Z,7.95
2023-03-26T15:20:31.373Z,7.64
2023-03-26T15:23:38.881Z,7.45
2023-03-26T15:27:01.266Z,7.30
2023-03-26T15:30:09.715Z,7.17
2023-03-26T15:33:26.022Z,6.97
2023-03-26T15:36:29.729Z,6.80
2023-03-26T15:39:59.434Z,6.62
2023-03-26T15:43:01.223Z,6.49
2023-03-26T15:46:11.509Z,6.42
2023-03-26T15:49:24.389Z,6.34
2023-03-26T15:52:35.988Z,6.21
2023-03-26T15:55:52.033Z,6.16
2023-03-26T15:59:16.189Z,6.06
2023-03-26T16:02:07.042Z,5.98
2023-03-26T16:05:28.837Z,5.87
2023-03-26T16:08:52.376Z,5.64
2023-03-26T16:11:52.199Z,5.46
2023-03-26T16:14:47.495Z,5.35
2023-03-26T16:18:18.907Z,5.25
2023-03-26T16:21:38.718Z,5.11
2023-03-26T16:24:30.376Z,4.98
2023-03-26T16:27:33.464Z,4.90
2023-03-26T16:30:29.843Z,4.80
2023-03-26T16:33:20.640Z,4.73
2023-03-26T16:36:35.993Z,4.68
2023-03-26T16:39:43.676Z,4.63
2023-03-26T16:42:39.349Z,4.57
2023-03-26T16:45:47.926Z,4.52
2023-03-26T16:48:47.337Z,4.41
2023-03-26T16:52:10.632Z,4.30
2023-03-26T16:55:26.633Z,4.21
2023-03-26T16:58:53.240Z,4.13
2023-03-26T17:02:04.465Z,4.02
2023-03-26T17:05:08.918Z,3.88
2023-03-26T17:08:35.391Z,3.76
2023-03-26T17:11:48.057Z,3.61
2023-03-26T17:15:05.346Z,3.52
2023-03-26T17:18:20.792Z,3.40
2023-03-26T17:21:25.764Z,3.28
2023-03-26T17:24:29.038Z,3.17
2023-03-26T17:27:55.187Z,3.06
2023-03-26T17:31:03.006Z,2.94
2023-03-26T17:33:50.141Z,2.85
2023-03-26T17:36:42.943Z,2.78
2023-03-26T17:39:38.331Z,2.71
2023-03-26T17:42:37.707Z,2.66
2023-03-26T17:45:29.907Z,2.61
2023-03-26T17:48:21.821Z,2.60
2023-03-26T17:51:52.099Z,2.59
2023-03-26T17:54:46.884Z,2.61
2023-03-26T17:57:43.708Z,2.61
2023-03-26T18:00:43.002Z,2.62
2023-03-26T18:03:43.497Z,2.64
2023-03-26T18:07:13.080Z,2.67
2023-03-26T18:10:42.673Z,2.72
2023-03-26T18:14:23.449Z,2.78
2023-03-26T18:17:11.527Z,2.81
2023-03-26T18:20:06.569Z,2.82
2023-03-26T18:22:53.984Z,2.81
2023-03-26T18:30:10.026Z,2.77
2023-03-26T18:33:23.834Z,2.75
2023-03-26T18:36:25.722Z,2.69
2023-03-26T18:39:33.578Z,2.72
2023-03-26T18:42:27.285Z,2.72
2023-03-26T18:45:41.325Z,2.74
2023-03-26T18:48:58.975Z,2.75
2023-03-26T18:51:56.696Z,2.72
2023-03-26T18:54:48.245Z,2.67
2023-03-26T18:57:35.994Z,2.63
2023-03-26T19:00:27.295Z,2.61
2023-03-26T19:03:18.936Z,2.59
2023-03-26T19:06:13.069Z,2.58
2023-03-26T19:09:03.103Z,2.54
2023-03-26T19:11:56.476Z,2.53
2023-03-26T19:14:54.891Z,2.55
2023-03-26T19:17:52.914Z,2.58
2023-03-26T19:20:49.781Z,2.61
2023-03-26T19:23:40.488Z,2.64
2023-03-26T19:26:27.230Z,2.68
2023-03-26T19:29:18.691Z,2.75
2023-03-26T19:32:33.184Z,2.79
2023-03-26T19:35:22.976Z,2.84
2023-03-26T19:38:27.174Z,2.87
2023-03-26T19:41:45.235Z,2.90
2023-03-26T19:44:32.930Z,2.93
2023-03-26T19:47:39.115Z,2.97
2023-03-26T19:50:36.350Z,3.00
2023-03-26T19:53:34.812Z,3.02
2023-03-26T19:56:22.320Z,2.99
2023-03-26T19:59:08.930Z,3.03
2023-03-26T20:01:55.349Z,3.03
2023-03-26T20:04:43.362Z,3.05
2023-03-26T20:07:35.284Z,3.05
2023-03-26T20:10:23.707Z,3.08
2023-03-26T20:13:17.205Z,3.11
2023-03-26T20:16:14.777Z,3.14
2023-03-26T20:19:07.814Z,3.16
2023-03-26T20:22:01.021Z,3.19
2023-03-26T20:24:47.967Z,3.20
2023-03-26T20:27:35.094Z,3.20
2023-03-26T20:30:37.030Z,3.22
2023-03-26T20:33:26.490Z,3.26
2023-03-26T20:36:13.622Z,3.28
2023-03-26T20:39:04.899Z,3.29
2023-03-26T20:41:54.180Z,3.29
2023-03-26T20:44:46.484Z,3.26
2023-03-26T20:47:37.083Z,3.20
2023-03-26T20:50:24.203Z,3.16
2023-03-26T20:53:17.676Z,3.14
2023-03-26T20:56:20.306Z,3.16
2023-03-26T20:59:11.493Z,3.18
2023-03-26T21:01:58.775Z,3.21
2023-03-26T21:04:47.669Z,3.24
2023-03-26T21:07:34.563Z,3.27
2023-03-26T21:10:22.483Z,3.31
2023-03-26T21:13:30.637Z,3.32
2023-03-26T21:16:17.501Z,3.31
2023-03-26T21:19:05.170Z,3.31
2023-03-26T21:22:05.932Z,3.29
2023-03-26T21:24:58.508Z,3.26
2023-03-26T21:28:09.128Z,3.21
2023-03-26T21:30:56.581Z,3.15
2023-03-26T21:33:46.071Z,3.13
2023-03-26T21:36:33.081Z,3.10
2023-03-26T21:39:20.702Z,3.00
2023-03-26T21:42:07.852Z,3.04
2023-03-26T21:44:55.510Z,3.03
2023-03-26T21:47:42.981Z,3.00
2023-03-26T21:50:30.597Z,2.95
2023-03-26T21:53:17.924Z,2.92
2023-03-26T21:56:40.772Z,2.89
2023-03-26T21:59:30.360Z,2.83
2023-03-26T22:02:36.319Z,2.80
2023-03-26T22:05:43.324Z,2.77
2023-03-26T22:08:38.233Z,2.77
2023-03-26T22:11:25.449Z,2.75
2023-03-26T22:14:12.914Z,2.72
2023-03-26T22:17:01.648Z,2.72
2023-03-26T22:19:48.643Z,2.74
2023-03-26T22:22:35.919Z,2.76
2023-03-26T22:25:23.427Z,2.78
2023-03-26T22:28:09.933Z,2.77
2023-03-26T22:30:56.683Z,2.76
2023-03-26T22:33:51.968Z,2.74
2023-03-26T22:36:40.453Z,2.71
2023-03-26T22:39:26.955Z,2.69
2023-03-26T22:42:13.491Z,2.66
2023-03-26T22:45:00.163Z,2.66
2023-03-26T22:47:46.676Z,2.62
2023-03-26T22:50:33.294Z,2.58
2023-03-26T22:53:20.321Z,2.51
2023-03-26T22:56:11.095Z,2.48
2023-03-26T22:58:57.618Z,2.46
2023-03-26T23:01:44.895Z,2.42
2023-03-26T23:04:32.414Z,2.43
2023-03-26T23:07:19.206Z,2.43
2023-03-26T23:10:08.720Z,2.42
2023-03-26T23:12:55.952Z,2.40
2023-03-26T23:15:44.494Z,2.40
2023-03-26T23:18:31.334Z,2.38
2023-03-26T23:21:21.912Z,2.33
2023-03-26T23:24:08.506Z,2.30
2023-03-26T23:26:55.307Z,2.29
2023-03-26T23:29:41.758Z,2.28
2023-03-26T23:32:28.756Z,2.27
2023-03-26T23:35:15.981Z,2.25
2023-03-26T23:38:02.747Z,2.23
2023-03-26T23:40:57.269Z,2.20
2023-03-26T23:43:53.521Z,2.17
2023-03-26T23:46:43.642Z,2.13
2023-03-26T23:49:30.122Z,2.08
2023-03-26T23:52:16.700Z,1.97
2023-03-26T23:55:03.646Z,1.88
2023-03-26T23:57:51.013Z,1.78
